Time;durP1;ratioP1;P1;durP2;ratioP2;P2;SDS_P1;SDS_P2;PMS_P1;PMS_P2;Temp;Humidity;BMP_temperature;BMP_pressure;BME280_temperature;BME280_humidity;BME280_pressure;Samples;Min_cycle;Max_cycle;Signal;HPM_P1;HPM_P2
2022/06/08 00:02:58;;;;;;;1.67;0.80;;;;;;;;;;10369063;28;19914;-43
2022/06/08 00:07:58;;;;;;;1.25;0.77;;;;;;;;;;10370240;28;20030;-42
2022/06/08 00:12:59;;;;;;;1.92;0.80;;;;;;;;;;10367992;28;20026;-43
2022/06/08 00:18:00;;;;;;;3.00;1.08;;;;;;;;;;10350460;28;20473;-42
2022/06/08 00:23:01;;;;;;;3.03;1.00;;;;;;;;;;10379666;28;20104;-43
2022/06/08 00:28:03;;;;;;;2.53;0.82;;;;;;;;;;10347141;28;20470;-43
2022/06/08 00:33:04;;;;;;;4.20;0.70;;;;;;;;;;10369575;28;20034;-43
2022/06/08 00:38:04;;;;;;;2.90;0.80;;;;;;;;;;10366407;28;20387;-43
2022/06/08 00:43:05;;;;;;;0.95;0.65;;;;;;;;;;10364383;28;20041;-43
2022/06/08 00:48:07;;;;;;;1.02;0.63;;;;;;;;;;10371568;28;20485;-43
2022/06/08 00:53:10;;;;;;;2.25;0.68;;;;;;;;;;10365236;28;20040;-43
2022/06/08 00:58:18;;;;;;;2.75;0.70;;;;;;;;;;10370894;28;20045;-43
2022/06/08 01:03:20;;;;;;;0.90;0.60;;;;;;;;;;10352608;28;20472;-43
2022/06/08 01:08:36;;;;;;;1.38;0.73;;;;;;;;;;10359949;28;20450;-43
2022/06/08 01:13:38;;;;;;;1.75;0.90;;;;;;;;;;10345117;28;20088;-43
2022/06/08 01:18:41;;;;;;;1.05;0.82;;;;;;;;;;10370026;28;20030;-43
2022/06/08 01:23:41;;;;;;;1.85;1.00;;;;;;;;;;10366040;28;20111;-43
2022/06/08 01:29:02;;;;;;;4.22;0.95;;;;;;;;;;10366744;28;20030;-43
2022/06/08 01:34:20;;;;;;;3.67;0.70;;;;;;;;;;10364500;28;20092;-43
2022/06/08 01:39:49;;;;;;;1.88;0.70;;;;;;;;;;10368261;28;20034;-43
2022/06/08 01:50:52;;;;;;;1.38;0.68;;;;;;;;;;10361590;28;20026;-43
2022/06/08 01:55:59;;;;;;;3.28;0.80;;;;;;;;;;10369882;28;20180;-43
2022/06/08 02:01:17;;;;;;;0.93;0.70;;;;;;;;;;10369987;28;20493;-43
2022/06/08 02:06:31;;;;;;;0.70;0.70;;;;;;;;;;10380858;28;20037;-43
2022/06/08 02:12:01;;;;;;;1.65;0.68;;;;;;;;;;10371518;28;20018;-43
2022/06/08 02:17:54;;;;;;;1.10;0.77;;;;;;;;;;10374418;28;20029;-43
2022/06/08 02:23:15;;;;;;;2.72;0.60;;;;;;;;;;10337665;28;20092;-44
2022/06/08 02:28:33;;;;;;;2.88;0.60;;;;;;;;;;10371382;28;20629;-43
2022/06/08 02:39:25;;;;;;;1.48;0.70;;;;;;;;;;10374625;28;20038;-43
2022/06/08 02:44:30;;;;;;;1.27;0.80;;;;;;;;;;10370354;28;20371;-43
2022/06/08 02:49:36;;;;;;;5.28;0.90;;;;;;;;;;10370495;28;20061;-43
2022/06/08 02:54:36;;;;;;;1.15;0.65;;;;;;;;;;10370559;28;20038;-43
2022/06/08 02:59:52;;;;;;;2.08;0.75;;;;;;;;;;10385183;28;20026;-43
2022/06/08 03:05:21;;;;;;;4.57;0.98;;;;;;;;;;10369315;28;20634;-43
2022/06/08 03:10:23;;;;;;;1.60;0.68;;;;;;;;;;10400781;28;20049;-43
2022/06/08 03:15:25;;;;;;;0.85;0.68;;;;;;;;;;10373527;28;20033;-44
2022/06/08 03:20:27;;;;;;;3.50;0.90;;;;;;;;;;10368695;28;20029;-43
2022/06/08 03:25:28;;;;;;;1.73;0.68;;;;;;;;;;10382684;28;20073;-43
2022/06/08 03:30:28;;;;;;;1.38;0.70;;;;;;;;;;10369742;28;20120;-43
2022/06/08 03:35:29;;;;;;;1.55;0.80;;;;;;;;;;10373921;28;20444;-43
2022/06/08 03:40:30;;;;;;;5.03;0.80;;;;;;;;;;10369325;28;20059;-42
2022/06/08 03:45:41;;;;;;;3.35;0.73;;;;;;;;;;10377680;28;20043;-43
2022/06/08 03:50:43;;;;;;;1.17;0.70;;;;;;;;;;10367691;28;20397;-43
2022/06/08 03:55:47;;;;;;;0.82;0.60;;;;;;;;;;10366202;28;20482;-43
2022/06/08 04:00:49;;;;;;;2.25;0.50;;;;;;;;;;10366565;28;20034;-43
2022/06/08 04:05:50;;;;;;;1.50;0.73;;;;;;;;;;10363142;28;20381;-43
2022/06/08 04:10:51;;;;;;;0.98;0.63;;;;;;;;;;10373125;28;20045;-43
2022/06/08 04:15:51;;;;;;;1.60;0.70;;;;;;;;;;10367289;28;20114;-43
2022/06/08 04:20:55;;;;;;;2.17;0.63;;;;;;;;;;10370236;28;20034;-43
2022/06/08 04:25:56;;;;;;;2.00;0.70;;;;;;;;;;10365613;28;20421;-43
2022/06/08 04:30:57;;;;;;;1.27;0.80;;;;;;;;;;10374933;28;20045;-43
2022/06/08 04:35:58;;;;;;;2.25;0.80;;;;;;;;;;10366570;28;20033;-42
2022/06/08 04:41:01;;;;;;;0.98;0.70;;;;;;;;;;10366133;28;20638;-43
2022/06/08 04:46:02;;;;;;;3.92;0.70;;;;;;;;;;10365195;28;20033;-43
2022/06/08 04:51:03;;;;;;;2.08;0.90;;;;;;;;;;10361751;28;20447;-43
2022/06/08 04:56:04;;;;;;;2.60;0.70;;;;;;;;;;10361595;28;20022;-43
2022/06/08 05:01:05;;;;;;;8.27;0.70;;;;;;;;;;10342048;28;20064;-43
2022/06/08 05:06:05;;;;;;;1.40;0.80;;;;;;;;;;10344349;28;20034;-43
2022/06/08 05:11:07;;;;;;;0.55;0.50;;;;;;;;;;10363963;28;20048;-43
2022/06/08 05:16:08;;;;;;;0.57;0.50;;;;;;;;;;10363379;28;20045;-43
2022/06/08 05:21:09;;;;;;;0.52;0.50;;;;;;;;;;10357499;28;20030;-43
2022/06/08 05:26:12;;;;;;;0.98;0.70;;;;;;;;;;10362550;28;20050;-43
2022/06/08 05:31:13;;;;;;;0.52;0.50;;;;;;;;;;10363698;28;20050;-43
2022/06/08 05:36:16;;;;;;;7.63;0.88;;;;;;;;;;10366823;28;20030;-44
2022/06/08 05:41:17;;;;;;;5.82;1.10;;;;;;;;;;10362721;28;20025;-42
2022/06/08 05:46:18;;;;;;;5.18;1.10;;;;;;;;;;10367738;28;20030;-44
2022/06/08 05:51:18;;;;;;;2.72;1.10;;;;;;;;;;10373179;28;20647;-43
2022/06/08 05:56:19;;;;;;;2.67;0.77;;;;;;;;;;10370968;28;20022;-43
2022/06/08 06:01:19;;;;;;;9.55;0.90;;;;;;;;;;10371481;28;20065;-47
2022/06/08 06:06:20;;;;;;;1.83;0.68;;;;;;;;;;10371653;28;20030;-44
2022/06/08 06:11:21;;;;;;;12.88;1.40;;;;;;;;;;10373399;28;20029;-47
2022/06/08 06:16:21;;;;;;;9.00;1.25;;;;;;;;;;10372380;28;20060;-47
2022/06/08 06:21:25;;;;;;;11.07;1.10;;;;;;;;;;10372420;28;20037;-46
2022/06/08 06:26:27;;;;;;;3.60;1.10;;;;;;;;;;10370522;28;20070;-45
2022/06/08 06:31:43;;;;;;;1.95;0.98;;;;;;;;;;10368386;28;20041;-46
2022/06/08 06:36:45;;;;;;;2.97;1.15;;;;;;;;;;10365436;28;20478;-47
2022/06/08 06:41:46;;;;;;;2.70;0.70;;;;;;;;;;10365333;28;20022;-46
2022/06/08 06:46:46;;;;;;;2.97;0.95;;;;;;;;;;10372941;28;20029;-47
2022/06/08 06:51:47;;;;;;;1.25;1.13;;;;;;;;;;10369991;28;20053;-46
2022/06/08 06:56:48;;;;;;;6.60;1.98;;;;;;;;;;10372204;28;20119;-49
2022/06/08 07:01:48;;;;;;;3.60;2.53;;;;;;;;;;10383292;28;20064;-47
2022/06/08 07:06:49;;;;;;;4.75;2.75;;;;;;;;;;10374802;28;20103;-45
2022/06/08 07:11:50;;;;;;;14.75;3.10;;;;;;;;;;10371997;28;20177;-45
2022/06/08 07:16:52;;;;;;;5.03;2.38;;;;;;;;;;10369792;28;20033;-46
2022/06/08 07:21:52;;;;;;;6.90;1.80;;;;;;;;;;10367740;28;20075;-46
2022/06/08 07:26:53;;;;;;;6.82;1.17;;;;;;;;;;10361817;28;20108;-47
2022/06/08 07:31:53;;;;;;;3.20;1.30;;;;;;;;;;10359901;28;20037;-44
2022/06/08 07:36:55;;;;;;;1.50;1.23;;;;;;;;;;10365746;28;20037;-47
2022/06/08 07:41:56;;;;;;;1.05;0.98;;;;;;;;;;10367432;28;20485;-47
2022/06/08 07:46:56;;;;;;;2.75;0.90;;;;;;;;;;10366469;28;20096;-47
2022/06/08 07:51:58;;;;;;;1.10;1.00;;;;;;;;;;10368452;28;20068;-47
2022/06/08 07:57:01;;;;;;;0.90;0.80;;;;;;;;;;10358856;28;20030;-46
2022/06/08 08:02:04;;;;;;;1.48;0.90;;;;;;;;;;10367848;28;20029;-45
2022/06/08 08:07:05;;;;;;;2.33;0.88;;;;;;;;;;10361780;28;20026;-45
2022/06/08 08:12:06;;;;;;;1.95;0.70;;;;;;;;;;10365275;28;20037;-45
2022/06/08 08:17:07;;;;;;;2.47;0.88;;;;;;;;;;10366451;28;20036;-47
2022/06/08 08:22:09;;;;;;;1.35;0.95;;;;;;;;;;10364213;28;20104;-43
2022/06/08 08:27:09;;;;;;;1.10;0.90;;;;;;;;;;10357153;28;20050;-44
2022/06/08 08:32:10;;;;;;;1.38;0.63;;;;;;;;;;10364109;28;20033;-42
2022/06/08 08:37:12;;;;;;;2.10;0.80;;;;;;;;;;10363190;28;20425;-46
2022/06/08 08:42:23;;;;;;;1.08;0.80;;;;;;;;;;10362199;28;20022;-43
2022/06/08 08:47:35;;;;;;;0.90;0.80;;;;;;;;;;10364001;28;20124;-46
2022/06/08 08:53:05;;;;;;;1.85;0.70;;;;;;;;;;10366099;28;20631;-42
2022/06/08 08:58:14;;;;;;;0.80;0.70;;;;;;;;;;10352694;28;20042;-44
2022/06/08 09:03:39;;;;;;;1.88;0.70;;;;;;;;;;10394008;28;20181;-45
2022/06/08 09:08:52;;;;;;;4.10;0.70;;;;;;;;;;10363371;28;20560;-43
2022/06/08 09:13:56;;;;;;;6.20;0.85;;;;;;;;;;10352451;28;20121;-42
2022/06/08 09:18:57;;;;;;;0.70;0.70;;;;;;;;;;10349411;28;20077;-43
2022/06/08 09:24:07;;;;;;;2.10;0.93;;;;;;;;;;10363809;28;20092;-45
2022/06/08 09:29:21;;;;;;;1.65;0.82;;;;;;;;;;10357564;28;20042;-42
2022/06/08 09:34:25;;;;;;;1.75;0.80;;;;;;;;;;10354172;28;20145;-44
2022/06/08 09:39:25;;;;;;;1.65;0.73;;;;;;;;;;10365461;28;20036;-42
2022/06/08 09:44:36;;;;;;;0.80;0.52;;;;;;;;;;10353009;28;20478;-42
2022/06/08 09:55:51;;;;;;;1.30;0.60;;;;;;;;;;10352968;28;20389;-42
2022/06/08 10:01:28;;;;;;;1.08;0.77;;;;;;;;;;10363669;28;20030;-50
2022/06/08 10:07:03;;;;;;;1.40;0.67;;;;;;;;;;10365201;28;20052;-46
2022/06/08 10:12:19;;;;;;;5.03;0.52;;;;;;;;;;10363618;28;20036;-47
2022/06/08 10:17:53;;;;;;;1.85;0.70;;;;;;;;;;10368404;28;20034;-43
2022/06/08 10:23:14;;;;;;;0.50;0.50;;;;;;;;;;10361463;28;20029;-46
2022/06/08 10:28:52;;;;;;;0.82;0.60;;;;;;;;;;10371699;28;20034;-45
2022/06/08 10:34:05;;;;;;;;;;;;;;;;;;10369896;28;20429;-47
2022/06/08 10:39:08;;;;;;;0.95;0.80;;;;;;;;;;10371326;28;20360;-44
2022/06/08 10:44:33;;;;;;;1.55;0.68;;;;;;;;;;10363966;28;20033;-47
2022/06/08 10:49:34;;;;;;;0.50;0.50;;;;;;;;;;10369576;28;20175;-43
2022/06/08 10:54:54;;;;;;;0.65;0.65;;;;;;;;;;10386002;28;20022;-48
2022/06/08 11:00:19;;;;;;;1.15;0.60;;;;;;;;;;10367282;28;20030;-48
2022/06/08 11:05:46;;;;;;;2.03;0.60;;;;;;;;;;10369358;28;20037;-47
2022/06/08 11:10:48;;;;;;;1.98;0.70;;;;;;;;;;10366809;28;20045;-46
2022/06/08 11:16:18;;;;;;;1.17;0.80;;;;;;;;;;10369489;28;20041;-49
2022/06/08 11:21:57;;;;;;;0.50;0.50;;;;;;;;;;10359459;28;20033;-47
2022/06/08 11:27:00;;;;;;;0.60;0.55;;;;;;;;;;10367083;28;20069;-46
2022/06/08 11:32:01;;;;;;;0.38;0.38;;;;;;;;;;10358279;28;20363;-47
2022/06/08 11:37:29;;;;;;;0.68;0.63;;;;;;;;;;10369168;28;20029;-47
2022/06/08 11:42:31;;;;;;;1.60;0.70;;;;;;;;;;10367482;28;20022;-47
2022/06/08 11:47:37;;;;;;;1.00;0.90;;;;;;;;;;10365746;28;20037;-47
2022/06/08 11:52:41;;;;;;;0.60;0.60;;;;;;;;;;10361099;28;20474;-47
2022/06/08 11:57:46;;;;;;;2.00;0.60;;;;;;;;;;10363248;28;20030;-47
2022/06/08 12:02:55;;;;;;;6.47;0.90;;;;;;;;;;10368479;28;20029;-49
2022/06/08 12:08:12;;;;;;;1.02;0.90;;;;;;;;;;10366603;28;20026;-47
2022/06/08 12:13:22;;;;;;;0.70;0.70;;;;;;;;;;10358003;28;20038;-47
2022/06/08 12:18:53;;;;;;;2.10;1.02;;;;;;;;;;10366910;28;20045;-46
2022/06/08 12:24:22;;;;;;;1.13;1.02;;;;;;;;;;10366946;28;20054;-47
2022/06/08 12:29:52;;;;;;;0.88;0.70;;;;;;;;;;10356546;28;20049;-49
2022/06/08 12:35:04;;;;;;;0.70;0.70;;;;;;;;;;10360724;28;20227;-46
2022/06/08 12:40:17;;;;;;;2.97;0.70;;;;;;;;;;10365925;28;20076;-45
2022/06/08 12:46:09;;;;;;;2.67;1.00;;;;;;;;;;10356557;28;20022;-45
2022/06/08 12:51:29;;;;;;;1.13;0.70;;;;;;;;;;10346775;28;20038;-46
2022/06/08 12:56:30;;;;;;;4.22;0.80;;;;;;;;;;10360785;28;20033;-48
2022/06/08 13:01:31;;;;;;;4.70;0.73;;;;;;;;;;10364331;28;20579;-43
2022/06/08 13:06:32;;;;;;;9.88;1.00;;;;;;;;;;10364314;28;20034;-43
2022/06/08 13:11:32;;;;;;;1.63;0.77;;;;;;;;;;10363544;28;20405;-43
2022/06/08 13:16:33;;;;;;;1.33;0.80;;;;;;;;;;10364156;28;20029;-42
2022/06/08 13:21:35;;;;;;;1.27;0.60;;;;;;;;;;10362187;28;20037;-43
2022/06/08 13:26:39;;;;;;;3.47;1.10;;;;;;;;;;10357651;28;20510;-42
2022/06/08 13:31:40;;;;;;;5.75;1.00;;;;;;;;;;10361930;28;20033;-42
2022/06/08 13:36:53;;;;;;;4.88;0.80;;;;;;;;;;10365407;28;20505;-42
2022/06/08 13:42:18;;;;;;;3.17;0.80;;;;;;;;;;10357436;28;20499;-41
2022/06/08 13:47:22;;;;;;;1.13;0.80;;;;;;;;;;10353158;28;20111;-42
2022/06/08 13:52:28;;;;;;;3.10;1.00;;;;;;;;;;10372846;28;20038;-41
2022/06/08 13:57:29;;;;;;;1.48;0.80;;;;;;;;;;10384653;28;20049;-41
2022/06/08 14:02:45;;;;;;;1.70;0.85;;;;;;;;;;10378306;28;20033;-43
2022/06/08 14:13:17;;;;;;;1.13;0.80;;;;;;;;;;10369470;28;20030;-40
2022/06/08 14:18:38;;;;;;;0.60;0.60;;;;;;;;;;10370750;28;20057;-41
2022/06/08 14:23:43;;;;;;;2.13;0.90;;;;;;;;;;10368716;28;20029;-39
2022/06/08 14:28:47;;;;;;;2.20;0.70;;;;;;;;;;10367736;28;20116;-41
2022/06/08 14:33:49;;;;;;;0.85;0.68;;;;;;;;;;10371556;28;20019;-40
2022/06/08 14:38:50;;;;;;;1.77;0.70;;;;;;;;;;10370122;28;20017;-41
2022/06/08 14:43:51;;;;;;;0.85;0.80;;;;;;;;;;10370382;28;20106;-40
2022/06/08 14:48:51;;;;;;;1.95;0.88;;;;;;;;;;10356358;28;20473;-40
2022/06/08 14:53:52;;;;;;;1.10;0.80;;;;;;;;;;10365655;28;20319;-40
2022/06/08 14:59:18;;;;;;;3.08;0.88;;;;;;;;;;10364875;28;20112;-45
2022/06/08 15:04:22;;;;;;;0.90;0.80;;;;;;;;;;10364541;28;20041;-38
2022/06/08 15:09:25;;;;;;;1.25;0.80;;;;;;;;;;10364221;28;20045;-41
2022/06/08 15:14:47;;;;;;;1.63;0.70;;;;;;;;;;10360373;28;20699;-43
2022/06/08 15:19:53;;;;;;;4.10;0.82;;;;;;;;;;10374984;22;20009;-43
2022/06/08 15:24:55;;;;;;;1.85;0.60;;;;;;;;;;10401107;28;20025;-42
2022/06/08 15:29:57;;;;;;;1.48;0.70;;;;;;;;;;10404397;28;20029;-42
2022/06/08 15:34:58;;;;;;;2.63;0.73;;;;;;;;;;10404910;28;20481;-42
2022/06/08 15:40:03;;;;;;;0.73;0.63;;;;;;;;;;10407639;28;20025;-42
2022/06/08 15:45:05;;;;;;;2.83;0.80;;;;;;;;;;10409052;28;20069;-43
2022/06/08 15:50:14;;;;;;;1.88;0.80;;;;;;;;;;10407590;28;20111;-42
2022/06/08 15:55:24;;;;;;;3.65;1.00;;;;;;;;;;10408704;28;20454;-42
2022/06/08 16:00:25;;;;;;;4.55;0.77;;;;;;;;;;10408413;28;20033;-42
2022/06/08 16:05:31;;;;;;;1.95;0.73;;;;;;;;;;10409096;28;20026;-42
2022/06/08 16:10:33;;;;;;;1.80;1.13;;;;;;;;;;10408272;28;20029;-43
2022/06/08 16:15:34;;;;;;;3.15;0.68;;;;;;;;;;10409278;28;20330;-42
2022/06/08 16:20:36;;;;;;;2.40;0.80;;;;;;;;;;10408237;28;20490;-42
2022/06/08 16:25:39;;;;;;;6.70;0.73;;;;;;;;;;10408764;28;20079;-42
2022/06/08 16:30:40;;;;;;;1.55;0.70;;;;;;;;;;10408135;28;20031;-43
2022/06/08 16:35:41;;;;;;;2.22;0.80;;;;;;;;;;10405830;28;20283;-42
2022/06/08 16:40:46;;;;;;;1.17;0.75;;;;;;;;;;10407061;28;20568;-42
2022/06/08 16:45:47;;;;;;;2.28;0.90;;;;;;;;;;10407171;28;20473;-44
2022/06/08 16:50:49;;;;;;;0.50;0.50;;;;;;;;;;10406833;28;20116;-42
2022/06/08 16:55:50;;;;;;;0.50;0.50;;;;;;;;;;10406408;28;20033;-43
2022/06/08 17:00:51;;;;;;;0.70;0.70;;;;;;;;;;10407566;28;20503;-41
2022/06/08 17:05:53;;;;;;;4.97;0.60;;;;;;;;;;10405147;28;20488;-42
2022/06/08 17:16:13;;;;;;;2.00;1.00;;;;;;;;;;10406758;28;20385;-42
2022/06/08 17:21:14;;;;;;;1.35;0.73;;;;;;;;;;10405612;28;20049;-41
2022/06/08 17:26:19;;;;;;;3.97;0.93;;;;;;;;;;10410116;28;20394;-42
2022/06/08 17:31:19;;;;;;;2.97;0.90;;;;;;;;;;10410885;28;20025;-41
2022/06/08 17:36:21;;;;;;;0.93;0.65;;;;;;;;;;10409873;28;20025;-41
2022/06/08 17:41:22;;;;;;;3.75;0.80;;;;;;;;;;10409906;28;20029;-41
2022/06/08 17:46:24;;;;;;;0.80;0.68;;;;;;;;;;10413783;28;20022;-41
2022/06/08 17:51:25;;;;;;;1.55;0.80;;;;;;;;;;10414163;28;20052;-41
2022/06/08 17:56:26;;;;;;;5.13;0.90;;;;;;;;;;10411253;28;20029;-41
2022/06/08 18:01:27;;;;;;;0.70;0.70;;;;;;;;;;10412327;28;20057;-40
2022/06/08 18:06:27;;;;;;;4.82;0.98;;;;;;;;;;10413616;28;20052;-41
2022/06/08 18:16:47;;;;;;;5.95;1.42;;;;;;;;;;10412969;28;20033;-40
2022/06/08 18:21:48;;;;;;;3.53;1.00;;;;;;;;;;10415565;28;20042;-42
2022/06/08 18:26:56;;;;;;;1.33;0.90;;;;;;;;;;10412054;28;20596;-41
2022/06/08 18:31:57;;;;;;;3.20;0.98;;;;;;;;;;10413244;28;20045;-40
2022/06/08 18:36:58;;;;;;;3.15;1.17;;;;;;;;;;10408961;28;20029;-40
2022/06/08 18:41:59;;;;;;;1.75;0.80;;;;;;;;;;10418718;28;20062;-40
2022/06/08 18:46:59;;;;;;;9.15;1.23;;;;;;;;;;10412735;28;20037;-40
2022/06/08 18:52:00;;;;;;;2.22;1.00;;;;;;;;;;10413218;28;20091;-41
2022/06/08 18:57:01;;;;;;;1.75;0.80;;;;;;;;;;10405437;28;20032;-41
2022/06/08 19:02:03;;;;;;;3.55;1.00;;;;;;;;;;10394053;28;20420;-41
2022/06/08 19:07:04;;;;;;;2.75;1.02;;;;;;;;;;10418678;28;20491;-41
2022/06/08 19:12:05;;;;;;;3.45;0.90;;;;;;;;;;10405317;28;20039;-41
2022/06/08 19:17:06;;;;;;;2.85;1.08;;;;;;;;;;10408414;28;20040;-41
2022/06/08 19:22:08;;;;;;;3.83;1.10;;;;;;;;;;10409354;28;20408;-41
2022/06/08 19:27:08;;;;;;;5.85;1.10;;;;;;;;;;10410655;28;20048;-41
2022/06/08 19:32:09;;;;;;;2.13;0.90;;;;;;;;;;10397660;28;20045;-41
2022/06/08 19:37:09;;;;;;;3.78;1.38;;;;;;;;;;10408761;28;20030;-41
2022/06/08 19:42:10;;;;;;;6.95;1.33;;;;;;;;;;10409214;28;20033;-41
2022/06/08 19:47:11;;;;;;;2.92;0.90;;;;;;;;;;10409956;28;20095;-41
2022/06/08 19:52:11;;;;;;;1.70;0.90;;;;;;;;;;10408195;28;20470;-42
2022/06/08 19:57:12;;;;;;;3.33;0.90;;;;;;;;;;10408665;28;20045;-41
2022/06/08 20:02:13;;;;;;;1.70;0.95;;;;;;;;;;10409155;28;20036;-41
2022/06/08 20:07:14;;;;;;;2.55;1.27;;;;;;;;;;10409014;28;20025;-41
2022/06/08 20:12:15;;;;;;;3.97;1.35;;;;;;;;;;10407039;28;20610;-39
2022/06/08 20:17:15;;;;;;;6.28;1.40;;;;;;;;;;10403114;28;21046;-42
2022/06/08 20:22:17;;;;;;;9.30;1.58;;;;;;;;;;10383395;28;20096;-42
2022/06/08 20:27:22;;;;;;;9.93;1.50;;;;;;;;;;10392550;28;20319;-43
2022/06/08 20:32:30;;;;;;;12.07;1.10;;;;;;;;;;10394880;28;20125;-43
2022/06/08 20:37:37;;;;;;;2.13;1.15;;;;;;;;;;10394632;28;20374;-41
2022/06/08 20:42:38;;;;;;;5.40;1.77;;;;;;;;;;10391644;28;20038;-42
2022/06/08 20:47:39;;;;;;;1.65;1.30;;;;;;;;;;10394447;28;20033;-42
2022/06/08 20:52:40;;;;;;;3.67;1.30;;;;;;;;;;10390049;28;20374;-41
2022/06/08 20:57:41;;;;;;;3.22;1.20;;;;;;;;;;10392997;28;20041;-42
2022/06/08 21:02:42;;;;;;;2.63;1.20;;;;;;;;;;10393330;28;20025;-42
2022/06/08 21:07:44;;;;;;;9.43;1.38;;;;;;;;;;10404348;28;20025;-41
2022/06/08 21:12:44;;;;;;;3.78;1.33;;;;;;;;;;10399775;28;20034;-42
2022/06/08 21:17:45;;;;;;;8.45;2.03;;;;;;;;;;10386664;28;20489;-42
2022/06/08 21:22:46;;;;;;;4.95;1.75;;;;;;;;;;10388676;28;20745;-41
2022/06/08 21:27:47;;;;;;;3.20;1.40;;;;;;;;;;10383203;28;20036;-42
2022/06/08 21:32:48;;;;;;;4.25;1.50;;;;;;;;;;10394929;28;20124;-42
2022/06/08 21:37:48;;;;;;;4.63;1.30;;;;;;;;;;10398930;28;20455;-42
2022/06/08 21:42:51;;;;;;;1.90;1.13;;;;;;;;;;10398470;28;20037;-42
2022/06/08 21:47:53;;;;;;;6.03;1.17;;;;;;;;;;10391569;28;20052;-42
2022/06/08 21:52:54;;;;;;;2.45;0.90;;;;;;;;;;10399501;28;20567;-43
2022/06/08 21:57:57;;;;;;;11.80;1.10;;;;;;;;;;10400271;28;20095;-43
2022/06/08 22:02:59;;;;;;;6.43;1.52;;;;;;;;;;10404314;28;20626;-42
2022/06/08 22:08:00;;;;;;;6.60;0.85;;;;;;;;;;10404765;28;20026;-42
2022/06/08 22:13:00;;;;;;;6.65;1.30;;;;;;;;;;10411479;28;20021;-42
2022/06/08 22:18:02;;;;;;;4.15;1.00;;;;;;;;;;10411717;28;20392;-41
2022/06/08 22:23:02;;;;;;;1.23;0.90;;;;;;;;;;10411620;28;20599;-42
2022/06/08 22:28:04;;;;;;;3.28;1.05;;;;;;;;;;10411408;28;20026;-41
2022/06/08 22:33:06;;;;;;;3.03;0.75;;;;;;;;;;10411369;28;20030;-42
2022/06/08 22:38:11;;;;;;;3.10;1.00;;;;;;;;;;10411234;28;20465;-43
2022/06/08 22:43:13;;;;;;;3.97;0.80;;;;;;;;;;10411046;28;20025;-41
2022/06/08 22:48:14;;;;;;;2.03;0.90;;;;;;;;;;10427571;28;20036;-42
2022/06/08 22:53:14;;;;;;;2.30;0.90;;;;;;;;;;10410819;28;20025;-41
2022/06/08 22:58:16;;;;;;;1.75;0.80;;;;;;;;;;10408991;28;20409;-42
2022/06/08 23:03:21;;;;;;;0.82;0.68;;;;;;;;;;10410298;28;20025;-42
2022/06/08 23:08:22;;;;;;;1.75;0.80;;;;;;;;;;10410005;28;20034;-42
2022/06/08 23:13:22;;;;;;;1.13;0.65;;;;;;;;;;10409773;28;20030;-43
2022/06/08 23:23:42;;;;;;;1.67;0.98;;;;;;;;;;10409034;28;20441;-41
2022/06/08 23:28:43;;;;;;;1.58;0.80;;;;;;;;;;10409361;28;20022;-42
2022/06/08 23:33:43;;;;;;;2.55;0.70;;;;;;;;;;10410374;28;20552;-42
2022/06/08 23:38:44;;;;;;;1.52;0.70;;;;;;;;;;10410495;28;20531;-42
2022/06/08 23:43:44;;;;;;;0.98;0.55;;;;;;;;;;10410075;28;20489;-42
2022/06/08 23:48:45;;;;;;;8.93;0.90;;;;;;;;;;10409554;28;20025;-41
2022/06/08 23:53:48;;;;;;;1.45;0.85;;;;;;;;;;10409777;28;20057;-42
2022/06/08 23:58:50;;;;;;;0.70;0.60;;;;;;;;;;10410049;28;20036;-42
